x

Santa Monica Basin - 33nm Wsw Of Santa Monica, Ca (46025) Wave Buoy

11:50pm - Fri 29th Aug 2014 All times are PDT. -7 hours from GMT.

  • Sig Wave height 4.3ft
  • Swell Direction
  • Peak Period 9s
  • Average Period 6s
  • Wind
    7mph, 9mph gusts
  • Sea Temp 71°f
  • Air Temp 67°f
  • Sea Pressure 1009.3mb
  • Santa Monica Basin - 33nm Wsw Of Santa Monica, Ca
  • Santa Monica Basin - 33nm Wsw Of Santa Monica, Ca

More Historic Weather Station data

Upgrade to MSW Pro to gain access to the past 30 days of data for over 8000 Wavebouys and Weather Stations around the globe.

Join Pro

Comparision Forecast

View Surf forecast
   
Fri 08/29 11:50pm 4.5ft 9s 6s 7 9 mph 1009.3mb 71f 67f
10:50pm 4.5ft 9s 6s 4 7 mph 1009.7mb 71f 68f
9:50pm 4.5ft 9s 5s 11 13 mph 1009.6mb 72f 68f
8:50pm 4.5ft 10s 5s 16 18 mph 1009.5mb 72f 69f
7:50pm 4.5ft 9s 6s 2 4 mph 1009.3mb 72f 68f
6:50pm 4ft 9s 6s 9 11 mph 1009.2mb 72f 68f
5:50pm 4ft 10s 6s 7 9 mph 1009.3mb 73f 70f
4:50pm 4ft 10s 7s 9 13 mph 1009.7mb 73f 70f
3:50pm 4ft 10s 7s 9 11 mph 1009.9mb 74f 69f
2:50pm 3.5ft 10s 7s 7
mph
1010.6mb 73f 68f
1:50pm 4ft 10s 7s 2 4 mph 1011.2mb 72f 68f
12:50pm 4ft 10s 7s 4 7 mph 1011.3mb 72f 68f
11:50am 4ft 11s 6s 2 4 mph 1011.6mb 72f 67f
10:50am 4.5ft 10s 6s 4 7 mph 1012mb 71f 66f
9:50am 5ft 10s 6s 9
mph
1012mb 71f 66f
8:50am 5ft 10s 6s 11 13 mph 1011.6mb 71f 66f
7:50am 5ft 10s 6s 9 11 mph 1011.6mb 71f 67f
6:50am 5ft 10s 7s 2 4 mph 1011.5mb 71f 66f
5:50am 5.5ft 11s 6s 9 13 mph 1011.1mb 71f 67f
4:50am 5.5ft 11s 7s 9 11 mph 1010.9mb 71f 66f
3:50am 5.5ft 11s 7s 9 11 mph 1010.9mb 71f 68f
2:50am 5.5ft 11s 7s 4 7 mph 1011.1mb 71f 68f
1:50am 5.5ft 11s 6s 7 9 mph 1011.4mb 71f 68f
12:50am 5ft 11s 6s 7 9 mph 1012mb 71f 68f
Thu 08/28 11:50pm 5ft 11s 6s 4 7 mph 1012mb 71f 68f
10:50pm 6ft 12s 6s 9 11 mph 1012.1mb 71f 68f
9:50pm 6ft 11s 7s 11 13 mph 1012.2mb 72f 68f
8:50pm 6.5ft 11s 7s 13 16 mph 1012mb 72f 69f
7:50pm 7ft 12s 7s 7 9 mph 1011.8mb 72f 69f
6:50pm 6.5ft 11s 7s 9 11 mph 1011.8mb 72f 69f
5:50pm 5.5ft 12s 7s 11 13 mph 1012.2mb 72f 69f
4:50pm 6ft 12s 7s 13 18 mph 1012.6mb 72f 69f
3:50pm 6ft 11s 8s 13 18 mph 1013.2mb 72f 70f
2:50pm 6ft 12s 8s 18 20 mph 1013.6mb 72f 71f
1:50pm 5ft 12s 9s 13 16 mph 1014.3mb 72f 70f
12:50pm 4.5ft 12s 8s 9 11 mph 1014.7mb 72f 71f
11:50am 5ft 12s 8s 9 11 mph 1015.4mb 72f 70f
10:50am 5ft 12s 8s 9 11 mph 1015.7mb 72f 69f
9:50am 5ft 12s 7s 9
mph
1015.8mb 71f 69f
8:50am 5ft 12s 7s 9 11 mph 1015.6mb 71f 69f
7:50am 5ft 12s 8s 7 9 mph 1015.5mb 71f 70f
6:50am 5ft 12s 8s 7
mph
1015.4mb 71f 69f
5:50am 5ft 12s 8s 7 9 mph 1015.2mb 71f 70f
4:50am 4.5ft 11s 8s 7 9 mph 1015.2mb 71f 70f
3:50am 5ft 12s 9s 7 9 mph 1015.4mb 71f 69f
2:50am 4.5ft 13s 8s 9 11 mph 1015.7mb 71f 69f
1:50am 5ft 13s 8s 11 13 mph 1015.7mb 71f 69f
12:50am 4.5ft 13s 8s 16 18 mph 1015.8mb 71f 70f
Wed 08/27 11:50pm 5ft 13s 8s 11 13 mph 1015.8mb 71f 69f
10:50pm 5ft 13s 8s 11 13 mph 1015.9mb 72f 70f
9:50pm 5ft 13s 8s 11 13 mph 1016mb 72f 70f
8:50pm 6.5ft 13s 10s 7 9 mph 1015.8mb 72f 70f
7:50pm 6ft 14s 10s 9 11 mph 1015.2mb 72f 71f
6:50pm 5.5ft 14s 10s 11
mph
1015.1mb 72f 72f
5:50pm 6.5ft 14s 10s 11 13 mph 1015.2mb 73f 72f
4:50pm 5.5ft 14s 10s 11 13 mph 1015.2mb 73f 71f
3:50pm 6ft 14s 11s 11 13 mph 1015.6mb 73f 71f
2:50pm 7ft 14s 11s 9 11 mph 1016.1mb 73f 71f
1:50pm 6ft 14s 11s 9 11 mph 1016.7mb 73f 71f
12:50pm 6.5ft 13s 11s 7 9 mph 1016.9mb 73f 71f
11:50am 6ft 14s 10s 4 7 mph 1017mb 72f 70f
10:50am 7ft 14s 11s 4 7 mph 1017.2mb 72f 69f
9:50am 6.5ft 14s 10s 4 9 mph 1017mb 71f 69f
8:50am 7ft 15s 11s 7 9 mph 1016.5mb 71f 69f
7:50am 7ft 15s 11s 7 9 mph 1016.4mb 71f 68f
6:50am 6.5ft 15s 10s 7
mph
1016.4mb 71f 68f
5:50am 7ft 15s 11s 4 7 mph 1016mb 71f 69f
4:50am 6.5ft 16s 10s 2 4 mph 1015.6mb 71f 69f
3:50am 6.5ft 15s 11s 4 7 mph 1015.3mb 71f 69f
2:50am 6ft 16s 9s 9 11 mph 1015mb 71f 68f
1:50am 6.5ft 16s 9s 11 16 mph 1014.8mb 71f 68f
12:50am 6.5ft 16s 9s 13 16 mph 1014.7mb 71f 68f
Tue 08/26 11:50pm 6ft 15s 8s 11 13 mph 1014.8mb 71f 68f
10:50pm 6ft 16s 9s 13 18 mph 1014.5mb 71f 68f
9:50pm 6ft 15s 8s 11 16 mph 1014.6mb 71f 67f
8:50pm 5.5ft 16s 9s 9 11 mph 1014.2mb 71f 68f
7:50pm 5.5ft 16s 9s 11 13 mph 1013.5mb 71f 68f
6:50pm 5ft 16s 8s 11 13 mph 1013.4mb 72f 68f
5:50pm 5ft 15s 9s 11 16 mph 1013.5mb 72f 68f
4:50pm 4.5ft 17s 9s 13 16 mph 1013.8mb 72f 68f
3:50pm 3.5ft 13s 8s 11 13 mph 1014.2mb 72f 68f
2:50pm 3.5ft 16s 9s 11 16 mph 1014.6mb 72f 67f
1:50pm 3.5ft 14s 9s 9 11 mph 1015.1mb 72f 67f
12:50pm 3.5ft 13s 9s 7 9 mph 1015.4mb 72f 67f
11:50am 3.5ft 14s 9s 4 7 mph 1015.4mb 71f 66f
10:50am 4ft 13s 9s 9 11 mph 1015.5mb 71f 66f
9:50am 4ft 13s 8s 9
mph
1015.3mb 71f 66f
8:50am 4.5ft 14s 8s 7 9 mph 1014.9mb 71f 66f
7:50am 4ft 14s 8s 7 9 mph 1014.8mb 71f 66f